Bratsberg, Minnesota
Current Conditions -  °F | °C
As of 7:34 PM on Friday 28 Nov 2014 (Local Time) from KONA Reporting Station
Scattered Clouds Scattered Clouds  
Wind Chill: 23°   Ceiling: Unl
Heat Index: 28°   Visibility: 10mi
Dew Point: 23°   Wind: 5mph
Humidity: 80%   Direction: 140°SE
Pressure: 29.86"   Gusts: NA
Location:  43.8851°N, 91.7705°W
Report Text: KONA 290134Z AUTO 14004KT 10SM SCT120 M02/M05 A2986 RMK AO2
Loading
Personal Weather Stations






























Interactive Weather Map New forecast layout! Learn more

10-Day Weather Forecast

Advertisements
Track Severe Weather on mobile